sensor_id;sensor_type;location;lat;lon;timestamp;temperature;humidity
1534;DHT22;760;48.822;9.304;2023-03-19T05:04:50;8.80;99.90
1534;DHT22;760;48.822;9.304;2023-03-19T05:07:15;8.90;99.90
1534;DHT22;760;48.822;9.304;2023-03-19T05:09:41;8.90;99.90
1534;DHT22;760;48.822;9.304;2023-03-19T05:12:09;8.90;99.90
1534;DHT22;760;48.822;9.304;2023-03-19T05:14:35;8.90;99.90
1534;DHT22;760;48.822;9.304;2023-03-19T05:17:00;8.90;99.90
1534;DHT22;760;48.822;9.304;2023-03-19T05:19:26;8.90;99.90
1534;DHT22;760;48.822;9.304;2023-03-19T05:21:52;8.90;99.90
1534;DHT22;760;48.822;9.304;2023-03-19T05:24:17;8.90;99.90
1534;DHT22;760;48.822;9.304;2023-03-19T05:26:43;9.00;99.90
1534;DHT22;760;48.822;9.304;2023-03-19T05:29:09;9.00;99.90
1534;DHT22;760;48.822;9.304;2023-03-19T05:31:36;9.00;99.90
1534;DHT22;760;48.822;9.304;2023-03-19T05:34:02;9.00;99.90
1534;DHT22;760;48.822;9.304;2023-03-19T05:36:28;9.10;99.90
1534;DHT22;760;48.822;9.304;2023-03-19T05:38:54;9.10;99.90
1534;DHT22;760;48.822;9.304;2023-03-19T05:41:20;9.10;99.90
1534;DHT22;760;48.822;9.304;2023-03-19T05:43:46;9.10;99.90
1534;DHT22;760;48.822;9.304;2023-03-19T05:46:12;9.20;99.90
1534;DHT22;760;48.822;9.304;2023-03-19T05:48:37;9.20;99.90
1534;DHT22;760;48.822;9.304;2023-03-19T05:51:03;9.20;99.90
1534;DHT22;760;48.822;9.304;2023-03-19T05:53:29;9.20;99.90
1534;DHT22;760;48.822;9.304;2023-03-19T05:55:55;9.30;99.90
1534;DHT22;760;48.822;9.304;2023-03-19T05:58:21;9.30;99.90
1534;DHT22;760;48.822;9.304;2023-03-19T06:00:48;9.40;99.90
1534;DHT22;760;48.822;9.304;2023-03-19T06:03:14;9.40;99.90
1534;DHT22;760;48.822;9.304;2023-03-19T06:05:39;9.40;99.90
1534;DHT22;760;48.822;9.304;2023-03-19T06:08:05;9.40;99.90
1534;DHT22;760;48.822;9.304;2023-03-19T06:10:33;9.40;99.90
1534;DHT22;760;48.822;9.304;2023-03-19T06:12:59;9.50;99.90
1534;DHT22;760;48.822;9.304;2023-03-19T06:15:24;9.60;99.90
1534;DHT22;760;48.822;9.304;2023-03-19T06:17:51;9.60;99.90
1534;DHT22;760;48.822;9.304;2023-03-19T06:20:17;9.60;99.90
1534;DHT22;760;48.822;9.304;2023-03-19T06:22:43;9.70;99.90
1534;DHT22;760;48.822;9.304;2023-03-19T06:25:09;9.70;99.90
1534;DHT22;760;48.822;9.304;2023-03-19T06:27:35;9.80;99.90
1534;DHT22;760;48.822;9.304;2023-03-19T06:30:01;9.80;99.90
1534;DHT22;760;48.822;9.304;2023-03-19T06:32:26;9.80;99.90
1534;DHT22;760;48.822;9.304;2023-03-19T06:34:52;9.90;99.90
1534;DHT22;760;48.822;9.304;2023-03-19T06:37:19;9.90;99.90
1534;DHT22;760;48.822;9.304;2023-03-19T06:39:45;10.00;99.90
1534;DHT22;760;48.822;9.304;2023-03-19T06:42:11;10.00;99.90
1534;DHT22;760;48.822;9.304;2023-03-19T06:44:37;10.10;99.90
1534;DHT22;760;48.822;9.304;2023-03-19T06:47:03;10.10;99.90
1534;DHT22;760;48.822;9.304;2023-03-19T06:49:28;10.20;99.90
1534;DHT22;760;48.822;9.304;2023-03-19T06:51:54;10.30;99.90
1534;DHT22;760;48.822;9.304;2023-03-19T06:54:19;10.40;99.90
1534;DHT22;760;48.822;9.304;2023-03-19T06:56:45;10.50;99.90
1534;DHT22;760;48.822;9.304;2023-03-19T06:59:12;10.70;99.90
1534;DHT22;760;48.822;9.304;2023-03-19T07:01:40;10.80;99.90
1534;DHT22;760;48.822;9.304;2023-03-19T07:04:06;10.90;99.90
1534;DHT22;760;48.822;9.304;2023-03-19T07:06:32;11.00;99.90
1534;DHT22;760;48.822;9.304;2023-03-19T07:08:59;11.10;99.90
1534;DHT22;760;48.822;9.304;2023-03-19T07:11:25;11.20;99.90
1534;DHT22;760;48.822;9.304;2023-03-19T07:13:50;11.30;99.90
1534;DHT22;760;48.822;9.304;2023-03-19T07:16:16;11.40;99.90
1534;DHT22;760;48.822;9.304;2023-03-19T07:18:42;11.50;99.90
1534;DHT22;760;48.822;9.304;2023-03-19T07:21:07;11.60;99.90
1534;DHT22;760;48.822;9.304;2023-03-19T07:23:33;11.70;99.90
1534;DHT22;760;48.822;9.304;2023-03-19T07:25:58;11.80;99.90
1534;DHT22;760;48.822;9.304;2023-03-19T07:28:25;11.80;99.90
1534;DHT22;760;48.822;9.304;2023-03-19T07:30:52;11.90;99.90
1534;DHT22;760;48.822;9.304;2023-03-19T07:33:18;12.00;99.90
1534;DHT22;760;48.822;9.304;2023-03-19T07:35:44;12.10;99.90
1534;DHT22;760;48.822;9.304;2023-03-19T07:38:11;12.20;99.90
1534;DHT22;760;48.822;9.304;2023-03-19T07:40:37;12.30;99.90
1534;DHT22;760;48.822;9.304;2023-03-19T07:43:03;12.30;99.90
1534;DHT22;760;48.822;9.304;2023-03-19T07:45:29;12.30;99.90
1534;DHT22;760;48.822;9.304;2023-03-19T07:47:54;12.30;99.90
1534;DHT22;760;48.822;9.304;2023-03-19T07:50:20;12.30;99.90
1534;DHT22;760;48.822;9.304;2023-03-19T07:52:46;12.40;99.90
1534;DHT22;760;48.822;9.304;2023-03-19T07:55:16;12.40;99.90
1534;DHT22;760;48.822;9.304;2023-03-19T07:57:41;12.50;99.90
1534;DHT22;760;48.822;9.304;2023-03-19T08:00:07;12.50;99.90
1534;DHT22;760;48.822;9.304;2023-03-19T08:02:35;12.60;99.90
1534;DHT22;760;48.822;9.304;2023-03-19T08:05:01;12.70;99.90
1534;DHT22;760;48.822;9.304;2023-03-19T08:07:29;12.70;99.90
1534;DHT22;760;48.822;9.304;2023-03-19T08:09:55;12.70;99.90
1534;DHT22;760;48.822;9.304;2023-03-19T08:12:23;12.80;99.90
1534;DHT22;760;48.822;9.304;2023-03-19T08:14:49;12.80;99.90
1534;DHT22;760;48.822;9.304;2023-03-19T08:17:15;12.90;99.90
1534;DHT22;760;48.822;9.304;2023-03-19T08:19:40;12.90;99.90
1534;DHT22;760;48.822;9.304;2023-03-19T08:22:06;13.00;99.90
1534;DHT22;760;48.822;9.304;2023-03-19T08:24:32;13.00;99.90
1534;DHT22;760;48.822;9.304;2023-03-19T08:26:57;13.00;99.90
1534;DHT22;760;48.822;9.304;2023-03-19T08:29:23;13.10;99.90
1534;DHT22;760;48.822;9.304;2023-03-19T08:31:54;13.10;99.90
1534;DHT22;760;48.822;9.304;2023-03-19T08:34:22;13.20;99.90
1534;DHT22;760;48.822;9.304;2023-03-19T08:36:48;13.20;99.90
1534;DHT22;760;48.822;9.304;2023-03-19T08:39:15;13.30;99.90
1534;DHT22;760;48.822;9.304;2023-03-19T08:41:41;13.40;99.90
1534;DHT22;760;48.822;9.304;2023-03-19T08:44:06;13.50;99.90
1534;DHT22;760;48.822;9.304;2023-03-19T08:46:32;13.60;99.90
1534;DHT22;760;48.822;9.304;2023-03-19T08:48:58;13.90;99.90
1534;DHT22;760;48.822;9.304;2023-03-19T08:51:24;14.10;99.90
1534;DHT22;760;48.822;9.304;2023-03-19T08:53:51;14.30;99.90
1534;DHT22;760;48.822;9.304;2023-03-19T08:56:16;14.50;99.90
1534;DHT22;760;48.822;9.304;2023-03-19T08:58:42;14.60;99.90
1534;DHT22;760;48.822;9.304;2023-03-19T09:01:10;14.70;99.90
1534;DHT22;760;48.822;9.304;2023-03-19T09:03:37;14.80;99.90
1534;DHT22;760;48.822;9.304;2023-03-19T09:06:06;14.90;99.90
1534;DHT22;760;48.822;9.304;2023-03-19T09:08:32;15.00;99.90
1534;DHT22;760;48.822;9.304;2023-03-19T09:10:58;15.10;99.90
1534;DHT22;760;48.822;9.304;2023-03-19T09:13:24;15.20;99.90
1534;DHT22;760;48.822;9.304;2023-03-19T09:15:50;15.30;99.90
1534;DHT22;760;48.822;9.304;2023-03-19T09:18:16;15.60;99.90
1534;DHT22;760;48.822;9.304;2023-03-19T09:20:45;16.00;99.90
1534;DHT22;760;48.822;9.304;2023-03-19T09:23:11;16.30;99.90
1534;DHT22;760;48.822;9.304;2023-03-19T09:25:37;16.80;99.90
1534;DHT22;760;48.822;9.304;2023-03-19T09:28:03;17.50;99.90
1534;DHT22;760;48.822;9.304;2023-03-19T09:30:28;18.10;99.90
1534;DHT22;760;48.822;9.304;2023-03-19T09:32:54;18.70;99.90
1534;DHT22;760;48.822;9.304;2023-03-19T09:35:20;19.20;99.90
1534;DHT22;760;48.822;9.304;2023-03-19T09:37:47;19.50;98.40
1534;DHT22;760;48.822;9.304;2023-03-19T09:40:26;19.70;98.00
1534;DHT22;760;48.822;9.304;2023-03-19T09:43:08;19.90;97.20
1534;DHT22;760;48.822;9.304;2023-03-19T09:45:44;19.90;97.90
1534;DHT22;760;48.822;9.304;2023-03-19T09:48:15;19.80;97.30
1534;DHT22;760;48.822;9.304;2023-03-19T09:50:43;19.80;97.00
1534;DHT22;760;48.822;9.304;2023-03-19T09:53:28;19.90;94.40
1534;DHT22;760;48.822;9.304;2023-03-19T09:55:57;20.10;90.60
1534;DHT22;760;48.822;9.304;2023-03-19T09:58:32;20.30;90.20
1534;DHT22;760;48.822;9.304;2023-03-19T10:01:00;20.20;91.30
1534;DHT22;760;48.822;9.304;2023-03-19T10:11:29;22.70;91.90
1534;DHT22;760;48.822;9.304;2023-03-19T10:16:27;23.80;90.00
1534;DHT22;760;48.822;9.304;2023-03-19T10:18:57;24.50;76.90
1534;DHT22;760;48.822;9.304;2023-03-19T10:21:45;25.10;82.70
1534;DHT22;760;48.822;9.304;2023-03-19T10:24:28;25.70;81.20
1534;DHT22;760;48.822;9.304;2023-03-19T10:26:59;25.90;79.70
1534;DHT22;760;48.822;9.304;2023-03-19T10:29:26;25.90;78.00
1534;DHT22;760;48.822;9.304;2023-03-19T10:34:30;25.40;75.40
1534;DHT22;760;48.822;9.304;2023-03-19T10:37:13;25.50;72.50
1534;DHT22;760;48.822;9.304;2023-03-19T10:39:41;25.60;74.60
1534;DHT22;760;48.822;9.304;2023-03-19T10:45:34;26.00;70.70
1534;DHT22;760;48.822;9.304;2023-03-19T10:47:54;25.60;70.70
1534;DHT22;760;48.822;9.304;2023-03-19T10:50:29;25.20;76.40
1534;DHT22;760;48.822;9.304;2023-03-19T10:55:52;25.00;78.80
1534;DHT22;760;48.822;9.304;2023-03-19T10:58:25;24.90;74.90
1534;DHT22;760;48.822;9.304;2023-03-19T11:01:18;24.30;76.00
1534;DHT22;760;48.822;9.304;2023-03-19T11:03:54;23.80;79.40
1534;DHT22;760;48.822;9.304;2023-03-19T11:06:30;23.50;77.10
1534;DHT22;760;48.822;9.304;2023-03-19T11:08:58;23.30;78.10
1534;DHT22;760;48.822;9.304;2023-03-19T11:11:45;23.20;76.40
1534;DHT22;760;48.822;9.304;2023-03-19T11:14:17;22.90;78.90
1534;DHT22;760;48.822;9.304;2023-03-19T11:19:27;22.10;80.20
1534;DHT22;760;48.822;9.304;2023-03-19T11:22:26;21.80;80.50
1534;DHT22;760;48.822;9.304;2023-03-19T11:25:01;21.50;81.10
1534;DHT22;760;48.822;9.304;2023-03-19T11:27:34;21.20;84.00
1534;DHT22;760;48.822;9.304;2023-03-19T11:30:01;21.10;81.80
1534;DHT22;760;48.822;9.304;2023-03-19T11:32:53;21.00;81.50
1534;DHT22;760;48.822;9.304;2023-03-19T11:38:24;20.50;81.00
1534;DHT22;760;48.822;9.304;2023-03-19T11:43:55;20.30;83.00
1534;DHT22;760;48.822;9.304;2023-03-19T11:49:35;20.40;83.00
1534;DHT22;760;48.822;9.304;2023-03-19T11:52:24;20.50;82.80
1534;DHT22;760;48.822;9.304;2023-03-19T11:55:16;20.60;82.30
1534;DHT22;760;48.822;9.304;2023-03-19T11:57:57;20.70;81.70
1534;DHT22;760;48.822;9.304;2023-03-19T12:00:42;20.70;80.00
1534;DHT22;760;48.822;9.304;2023-03-19T12:03:31;20.40;81.20
1534;DHT22;760;48.822;9.304;2023-03-19T12:17:01;20.00;81.40
1534;DHT22;760;48.822;9.304;2023-03-19T12:25:01;20.00;80.70
1534;DHT22;760;48.822;9.304;2023-03-19T12:30:48;19.90;80.60
1534;DHT22;760;48.822;9.304;2023-03-19T12:35:59;20.00;81.80
1534;DHT22;760;48.822;9.304;2023-03-19T12:41:08;20.00;82.00
1534;DHT22;760;48.822;9.304;2023-03-19T12:44:09;20.10;80.20
1534;DHT22;760;48.822;9.304;2023-03-19T12:46:54;20.10;79.70
1534;DHT22;760;48.822;9.304;2023-03-19T12:49:36;20.20;81.00
1534;DHT22;760;48.822;9.304;2023-03-19T13:00:39;20.30;78.00
1534;DHT22;760;48.822;9.304;2023-03-19T13:03:27;20.30;77.30
1534;DHT22;760;48.822;9.304;2023-03-19T13:06:02;20.30;78.50
1534;DHT22;760;48.822;9.304;2023-03-19T13:08:44;20.30;77.60
1534;DHT22;760;48.822;9.304;2023-03-19T13:11:23;20.30;78.80
1534;DHT22;760;48.822;9.304;2023-03-19T13:14:00;20.20;79.10
1534;DHT22;760;48.822;9.304;2023-03-19T13:16:38;20.00;80.00
1534;DHT22;760;48.822;9.304;2023-03-19T13:19:19;19.80;84.30
1534;DHT22;760;48.822;9.304;2023-03-19T13:21:47;19.30;85.70
1534;DHT22;760;48.822;9.304;2023-03-19T13:24:26;18.80;88.20
1534;DHT22;760;48.822;9.304;2023-03-19T13:26:55;18.40;89.70
1534;DHT22;760;48.822;9.304;2023-03-19T13:29:28;18.00;90.10
1534;DHT22;760;48.822;9.304;2023-03-19T13:32:24;17.70;90.80
1534;DHT22;760;48.822;9.304;2023-03-19T13:35:08;17.30;91.80
1534;DHT22;760;48.822;9.304;2023-03-19T13:37:41;16.90;93.30
1534;DHT22;760;48.822;9.304;2023-03-19T13:40:40;16.50;95.10
1534;DHT22;760;48.822;9.304;2023-03-19T13:54:17;14.40;99.90
1534;DHT22;760;48.822;9.304;2023-03-19T13:59:42;13.60;99.90
1534;DHT22;760;48.822;9.304;2023-03-19T14:05:07;13.20;99.90
1534;DHT22;760;48.822;9.304;2023-03-19T14:07:44;13.10;99.90
1534;DHT22;760;48.822;9.304;2023-03-19T14:10:29;13.10;99.90
1534;DHT22;760;48.822;9.304;2023-03-19T14:13:28;13.10;99.90
1534;DHT22;760;48.822;9.304;2023-03-19T14:16:04;13.10;99.90
1534;DHT22;760;48.822;9.304;2023-03-19T14:18:30;13.20;99.90
1534;DHT22;760;48.822;9.304;2023-03-19T14:20:59;13.20;99.90
1534;DHT22;760;48.822;9.304;2023-03-19T14:23:27;13.20;99.90
1534;DHT22;760;48.822;9.304;2023-03-19T14:36:40;13.60;99.90
1534;DHT22;760;48.822;9.304;2023-03-19T14:41:41;13.70;99.90
1534;DHT22;760;48.822;9.304;2023-03-19T14:44:28;13.80;99.90
1534;DHT22;760;48.822;9.304;2023-03-19T14:54:01;14.20;99.90
1534;DHT22;760;48.822;9.304;2023-03-19T14:56:13;14.30;99.90
1534;DHT22;760;48.822;9.304;2023-03-19T14:58:56;14.30;99.90
1534;DHT22;760;48.822;9.304;2023-03-19T15:01:23;14.30;99.90
1534;DHT22;760;48.822;9.304;2023-03-19T15:03:58;14.30;99.90
1534;DHT22;760;48.822;9.304;2023-03-19T15:06:24;14.30;99.90
1534;DHT22;760;48.822;9.304;2023-03-19T15:08:54;14.30;99.90
1534;DHT22;760;48.822;9.304;2023-03-19T15:11:40;14.40;99.90
1534;DHT22;760;48.822;9.304;2023-03-19T15:17:08;14.40;99.90
1534;DHT22;760;48.822;9.304;2023-03-19T15:19:38;14.40;99.90
1534;DHT22;760;48.822;9.304;2023-03-19T15:24:49;14.30;99.90
1534;DHT22;760;48.822;9.304;2023-03-19T15:27:25;14.30;99.90
1534;DHT22;760;48.822;9.304;2023-03-19T15:29:52;14.20;99.90
1534;DHT22;760;48.822;9.304;2023-03-19T15:32:31;14.20;99.90
1534;DHT22;760;48.822;9.304;2023-03-19T15:34:58;14.10;99.90
1534;DHT22;760;48.822;9.304;2023-03-19T15:37:24;14.00;99.90
1534;DHT22;760;48.822;9.304;2023-03-19T15:39:54;14.00;99.90
1534;DHT22;760;48.822;9.304;2023-03-19T15:42:22;13.90;99.90
1534;DHT22;760;48.822;9.304;2023-03-19T15:44:53;13.90;99.90
1534;DHT22;760;48.822;9.304;2023-03-19T15:47:24;13.90;99.90
1534;DHT22;760;48.822;9.304;2023-03-19T15:52:23;13.90;99.90
1534;DHT22;760;48.822;9.304;2023-03-19T15:54:51;13.80;99.90
1534;DHT22;760;48.822;9.304;2023-03-19T15:57:18;13.90;99.90
1534;DHT22;760;48.822;9.304;2023-03-19T15:59:44;13.90;99.90
1534;DHT22;760;48.822;9.304;2023-03-19T16:02:18;13.90;99.90
1534;DHT22;760;48.822;9.304;2023-03-19T16:04:46;13.90;99.90
1534;DHT22;760;48.822;9.304;2023-03-19T16:07:31;13.90;99.90
1534;DHT22;760;48.822;9.304;2023-03-19T16:10:00;13.80;99.90
1534;DHT22;760;48.822;9.304;2023-03-19T16:12:48;13.80;99.90
1534;DHT22;760;48.822;9.304;2023-03-19T16:15:39;13.70;99.90
1534;DHT22;760;48.822;9.304;2023-03-19T16:23:17;13.60;99.90
1534;DHT22;760;48.822;9.304;2023-03-19T16:25:44;13.60;99.90
1534;DHT22;760;48.822;9.304;2023-03-19T16:28:18;13.50;99.90
1534;DHT22;760;48.822;9.304;2023-03-19T16:30:46;13.40;99.90
1534;DHT22;760;48.822;9.304;2023-03-19T16:33:13;13.30;99.90
1534;DHT22;760;48.822;9.304;2023-03-19T16:35:39;13.30;99.90
1534;DHT22;760;48.822;9.304;2023-03-19T16:38:22;13.20;99.90
1534;DHT22;760;48.822;9.304;2023-03-19T16:43:34;13.10;99.90
1534;DHT22;760;48.822;9.304;2023-03-19T16:46:07;12.90;99.90
1534;DHT22;760;48.822;9.304;2023-03-19T16:48:35;12.80;99.90
1534;DHT22;760;48.822;9.304;2023-03-19T16:51:00;12.70;99.90
1534;DHT22;760;48.822;9.304;2023-03-19T16:53:29;12.60;99.90
1534;DHT22;760;48.822;9.304;2023-03-19T16:55:56;12.40;99.90
1534;DHT22;760;48.822;9.304;2023-03-19T16:58:25;12.30;99.90
1534;DHT22;760;48.822;9.304;2023-03-19T17:00:52;12.10;99.90
1534;DHT22;760;48.822;9.304;2023-03-19T17:03:18;12.00;99.90
1534;DHT22;760;48.822;9.304;2023-03-19T17:05:45;11.90;99.90
1534;DHT22;760;48.822;9.304;2023-03-19T17:08:11;11.80;99.90
1534;DHT22;760;48.822;9.304;2023-03-19T17:10:41;11.70;99.90
1534;DHT22;760;48.822;9.304;2023-03-19T17:13:17;11.60;99.90
1534;DHT22;760;48.822;9.304;2023-03-19T17:15:46;11.60;99.90
1534;DHT22;760;48.822;9.304;2023-03-19T17:18:20;11.50;99.90
1534;DHT22;760;48.822;9.304;2023-03-19T17:21:00;11.40;99.90
1534;DHT22;760;48.822;9.304;2023-03-19T17:23:27;11.40;99.90
1534;DHT22;760;48.822;9.304;2023-03-19T17:25:55;11.30;99.90
1534;DHT22;760;48.822;9.304;2023-03-19T17:28:22;11.20;99.90
1534;DHT22;760;48.822;9.304;2023-03-19T17:30:48;11.10;99.90
1534;DHT22;760;48.822;9.304;2023-03-19T17:33:23;11.00;99.90
1534;DHT22;760;48.822;9.304;2023-03-19T17:35:51;10.90;99.90
1534;DHT22;760;48.822;9.304;2023-03-19T17:38:17;10.90;99.90
1534;DHT22;760;48.822;9.304;2023-03-19T17:40:43;10.90;99.90
1534;DHT22;760;48.822;9.304;2023-03-19T17:43:10;10.90;99.90
1534;DHT22;760;48.822;9.304;2023-03-19T17:45:38;10.90;99.90
1534;DHT22;760;48.822;9.304;2023-03-19T17:48:04;10.80;99.90
1534;DHT22;760;48.822;9.304;2023-03-19T17:50:30;10.80;99.90
1534;DHT22;760;48.822;9.304;2023-03-19T17:52:57;10.70;99.90
1534;DHT22;760;48.822;9.304;2023-03-19T17:55:28;10.70;99.90
1534;DHT22;760;48.822;9.304;2023-03-19T17:57:54;10.70;99.90
1534;DHT22;760;48.822;9.304;2023-03-19T18:00:22;10.70;99.90
1534;DHT22;760;48.822;9.304;2023-03-19T18:02:50;10.70;99.90
1534;DHT22;760;48.822;9.304;2023-03-19T18:05:21;10.70;99.90
1534;DHT22;760;48.822;9.304;2023-03-19T18:07:49;10.70;99.90
1534;DHT22;760;48.822;9.304;2023-03-19T18:10:23;10.70;99.90
1534;DHT22;760;48.822;9.304;2023-03-19T18:12:51;10.60;99.90
1534;DHT22;760;48.822;9.304;2023-03-19T18:15:19;10.60;99.90
1534;DHT22;760;48.822;9.304;2023-03-19T18:17:47;10.60;99.90
1534;DHT22;760;48.822;9.304;2023-03-19T18:20:16;10.60;99.90
1534;DHT22;760;48.822;9.304;2023-03-19T18:22:43;10.60;99.90
1534;DHT22;760;48.822;9.304;2023-03-19T18:25:20;10.60;99.90
1534;DHT22;760;48.822;9.304;2023-03-19T18:27:46;10.60;99.90
1534;DHT22;760;48.822;9.304;2023-03-19T18:30:16;10.60;99.90
1534;DHT22;760;48.822;9.304;2023-03-19T18:32:44;10.60;99.90
1534;DHT22;760;48.822;9.304;2023-03-19T18:35:28;10.60;99.90
1534;DHT22;760;48.822;9.304;2023-03-19T18:37:55;10.60;99.90
1534;DHT22;760;48.822;9.304;2023-03-19T18:40:24;10.60;99.90
1534;DHT22;760;48.822;9.304;2023-03-19T18:42:50;10.60;99.90
1534;DHT22;760;48.822;9.304;2023-03-19T18:45:16;10.60;99.90
1534;DHT22;760;48.822;9.304;2023-03-19T18:47:44;10.60;99.90
1534;DHT22;760;48.822;9.304;2023-03-19T18:50:16;10.70;99.90
1534;DHT22;760;48.822;9.304;2023-03-19T18:52:43;10.70;99.90
1534;DHT22;760;48.822;9.304;2023-03-19T18:55:10;10.70;99.90
1534;DHT22;760;48.822;9.304;2023-03-19T18:57:39;10.70;99.90
1534;DHT22;760;48.822;9.304;2023-03-19T19:00:14;10.60;99.90
1534;DHT22;760;48.822;9.304;2023-03-19T19:02:41;10.60;99.90
1534;DHT22;760;48.822;9.304;2023-03-19T19:05:13;10.60;99.90
1534;DHT22;760;48.822;9.304;2023-03-19T19:07:40;10.60;99.90
1534;DHT22;760;48.822;9.304;2023-03-19T19:10:06;10.50;99.90
1534;DHT22;760;48.822;9.304;2023-03-19T19:12:33;10.60;99.90
1534;DHT22;760;48.822;9.304;2023-03-19T19:15:00;10.50;99.90
1534;DHT22;760;48.822;9.304;2023-03-19T19:17:28;10.50;99.90
1534;DHT22;760;48.822;9.304;2023-03-19T19:19:54;10.50;99.90
1534;DHT22;760;48.822;9.304;2023-03-19T19:22:20;10.50;99.90
1534;DHT22;760;48.822;9.304;2023-03-19T19:24:46;10.50;99.90
1534;DHT22;760;48.822;9.304;2023-03-19T19:27:23;10.50;99.90
1534;DHT22;760;48.822;9.304;2023-03-19T19:29:50;10.50;99.90
1534;DHT22;760;48.822;9.304;2023-03-19T19:32:27;10.50;99.90
1534;DHT22;760;48.822;9.304;2023-03-19T19:34:55;10.50;99.90
1534;DHT22;760;48.822;9.304;2023-03-19T19:37:21;10.50;99.90
1534;DHT22;760;48.822;9.304;2023-03-19T19:39:48;10.50;99.90
1534;DHT22;760;48.822;9.304;2023-03-19T19:42:16;10.50;99.90
1534;DHT22;760;48.822;9.304;2023-03-19T19:44:46;10.50;99.90
1534;DHT22;760;48.822;9.304;2023-03-19T19:47:15;10.50;99.90
1534;DHT22;760;48.822;9.304;2023-03-19T19:49:42;10.50;99.90
1534;DHT22;760;48.822;9.304;2023-03-19T19:52:16;10.50;99.90
1534;DHT22;760;48.822;9.304;2023-03-19T19:54:42;10.40;99.90
1534;DHT22;760;48.822;9.304;2023-03-19T19:57:19;10.50;99.90
1534;DHT22;760;48.822;9.304;2023-03-19T19:59:47;10.50;99.90
1534;DHT22;760;48.822;9.304;2023-03-19T20:02:27;10.50;99.90
1534;DHT22;760;48.822;9.304;2023-03-19T20:04:53;10.50;99.90
1534;DHT22;760;48.822;9.304;2023-03-19T20:07:20;10.60;99.90
1534;DHT22;760;48.822;9.304;2023-03-19T20:09:46;10.50;99.90
1534;DHT22;760;48.822;9.304;2023-03-19T20:12:27;10.50;99.90
1534;DHT22;760;48.822;9.304;2023-03-19T20:14:54;10.50;99.90
1534;DHT22;760;48.822;9.304;2023-03-19T20:17:20;10.50;99.90
1534;DHT22;760;48.822;9.304;2023-03-19T20:19:46;10.40;99.90
1534;DHT22;760;48.822;9.304;2023-03-19T20:22:11;10.40;99.90
1534;DHT22;760;48.822;9.304;2023-03-19T20:24:37;10.40;99.90
1534;DHT22;760;48.822;9.304;2023-03-19T20:27:16;10.30;99.90
1534;DHT22;760;48.822;9.304;2023-03-19T20:29:43;10.30;99.90
1534;DHT22;760;48.822;9.304;2023-03-19T20:32:33;10.30;99.90
1534;DHT22;760;48.822;9.304;2023-03-19T20:34:59;10.30;99.90
1534;DHT22;760;48.822;9.304;2023-03-19T20:37:28;10.30;99.90
1534;DHT22;760;48.822;9.304;2023-03-19T20:39:55;10.30;99.90
1534;DHT22;760;48.822;9.304;2023-03-19T20:42:21;10.30;99.90
1534;DHT22;760;48.822;9.304;2023-03-19T20:44:48;10.30;99.90
1534;DHT22;760;48.822;9.304;2023-03-19T20:47:18;10.20;99.90
1534;DHT22;760;48.822;9.304;2023-03-19T20:49:45;10.20;99.90
1534;DHT22;760;48.822;9.304;2023-03-19T20:52:11;10.20;99.90
1534;DHT22;760;48.822;9.304;2023-03-19T20:54:37;10.20;99.90
1534;DHT22;760;48.822;9.304;2023-03-19T20:57:13;10.10;99.90
1534;DHT22;760;48.822;9.304;2023-03-19T20:59:40;10.10;99.90
1534;DHT22;760;48.822;9.304;2023-03-19T21:02:21;10.10;99.90
1534;DHT22;760;48.822;9.304;2023-03-19T21:04:48;10.10;99.90
1534;DHT22;760;48.822;9.304;2023-03-19T21:07:27;10.10;99.90
1534;DHT22;760;48.822;9.304;2023-03-19T21:09:57;10.10;99.90
1534;DHT22;760;48.822;9.304;2023-03-19T21:12:31;10.10;99.90
1534;DHT22;760;48.822;9.304;2023-03-19T21:14:58;10.10;99.90
1534;DHT22;760;48.822;9.304;2023-03-19T21:17:25;10.10;99.90
1534;DHT22;760;48.822;9.304;2023-03-19T21:19:55;10.10;99.90
1534;DHT22;760;48.822;9.304;2023-03-19T21:22:24;10.10;99.90
1534;DHT22;760;48.822;9.304;2023-03-19T21:24:54;10.10;99.90
1534;DHT22;760;48.822;9.304;2023-03-19T21:27:25;10.10;99.90
1534;DHT22;760;48.822;9.304;2023-03-19T21:29:52;10.10;99.90
1534;DHT22;760;48.822;9.304;2023-03-19T21:32:18;10.20;99.90
1534;DHT22;760;48.822;9.304;2023-03-19T21:34:49;10.20;99.90
1534;DHT22;760;48.822;9.304;2023-03-19T21:37:17;10.20;99.90
1534;DHT22;760;48.822;9.304;2023-03-19T21:39:44;10.20;99.90
1534;DHT22;760;48.822;9.304;2023-03-19T21:42:17;10.30;99.90
1534;DHT22;760;48.822;9.304;2023-03-19T21:44:44;10.30;99.90
1534;DHT22;760;48.822;9.304;2023-03-19T21:47:17;10.20;99.90
1534;DHT22;760;48.822;9.304;2023-03-19T21:49:46;10.30;99.90
1534;DHT22;760;48.822;9.304;2023-03-19T21:52:14;10.20;99.90
1534;DHT22;760;48.822;9.304;2023-03-19T21:54:42;10.30;99.90
1534;DHT22;760;48.822;9.304;2023-03-19T21:57:16;10.20;99.90
1534;DHT22;760;48.822;9.304;2023-03-19T21:59:43;10.20;99.90
1534;DHT22;760;48.822;9.304;2023-03-19T22:04:47;10.20;99.90
1534;DHT22;760;48.822;9.304;2023-03-19T22:07:13;10.20;99.90
1534;DHT22;760;48.822;9.304;2023-03-19T22:09:39;10.30;99.90
1534;DHT22;760;48.822;9.304;2023-03-19T22:12:09;10.30;99.90
1534;DHT22;760;48.822;9.304;2023-03-19T22:14:40;10.20;99.90
1534;DHT22;760;48.822;9.304;2023-03-19T22:17:07;10.20;99.90
1534;DHT22;760;48.822;9.304;2023-03-19T22:19:34;10.20;99.90
1534;DHT22;760;48.822;9.304;2023-03-19T22:22:00;10.20;99.90
1534;DHT22;760;48.822;9.304;2023-03-19T22:24:26;10.20;99.90
1534;DHT22;760;48.822;9.304;2023-03-19T22:26:55;10.20;99.90
1534;DHT22;760;48.822;9.304;2023-03-19T22:29:23;10.10;99.90
1534;DHT22;760;48.822;9.304;2023-03-19T22:31:54;10.10;99.90
1534;DHT22;760;48.822;9.304;2023-03-19T22:34:24;10.00;99.90
1534;DHT22;760;48.822;9.304;2023-03-19T22:36:50;9.90;99.90
1534;DHT22;760;48.822;9.304;2023-03-19T22:39:16;9.90;99.90
1534;DHT22;760;48.822;9.304;2023-03-19T22:41:43;9.90;99.90
1534;DHT22;760;48.822;9.304;2023-03-19T22:44:25;9.90;99.90
1534;DHT22;760;48.822;9.304;2023-03-19T22:46:53;9.90;99.90
1534;DHT22;760;48.822;9.304;2023-03-19T22:49:19;9.90;99.90
1534;DHT22;760;48.822;9.304;2023-03-19T22:51:44;10.00;99.90
1534;DHT22;760;48.822;9.304;2023-03-19T22:54:10;10.00;99.90
1534;DHT22;760;48.822;9.304;2023-03-19T22:56:36;9.90;99.90
1534;DHT22;760;48.822;9.304;2023-03-19T22:59:02;9.90;99.90
